sensor_id;sensor_type;location;lat;lon;timestamp;temperature;humidity
5675;DHT22;2860;54.284;10.158;2024-02-28T00:00:21;3.20;99.90
5675;DHT22;2860;54.284;10.158;2024-02-28T00:02:46;3.20;99.90
5675;DHT22;2860;54.284;10.158;2024-02-28T00:05:12;3.20;99.90
5675;DHT22;2860;54.284;10.158;2024-02-28T00:07:37;3.20;99.90
5675;DHT22;2860;54.284;10.158;2024-02-28T00:10:03;3.10;99.90
5675;DHT22;2860;54.284;10.158;2024-02-28T00:12:29;3.10;99.90
5675;DHT22;2860;54.284;10.158;2024-02-28T00:14:54;3.10;99.90
5675;DHT22;2860;54.284;10.158;2024-02-28T00:17:20;3.10;99.90
5675;DHT22;2860;54.284;10.158;2024-02-28T00:19:45;3.10;99.90
5675;DHT22;2860;54.284;10.158;2024-02-28T00:22:11;3.10;99.90
5675;DHT22;2860;54.284;10.158;2024-02-28T00:24:36;3.10;99.90
5675;DHT22;2860;54.284;10.158;2024-02-28T00:27:02;3.10;99.90
5675;DHT22;2860;54.284;10.158;2024-02-28T00:29:27;3.00;99.90
5675;DHT22;2860;54.284;10.158;2024-02-28T00:31:53;3.00;99.90
5675;DHT22;2860;54.284;10.158;2024-02-28T00:34:18;3.00;99.90
5675;DHT22;2860;54.284;10.158;2024-02-28T00:36:44;3.00;99.90
5675;DHT22;2860;54.284;10.158;2024-02-28T00:39:10;3.00;99.90
5675;DHT22;2860;54.284;10.158;2024-02-28T00:41:36;3.00;99.90
5675;DHT22;2860;54.284;10.158;2024-02-28T00:44:02;3.00;99.90
5675;DHT22;2860;54.284;10.158;2024-02-28T00:46:28;2.90;99.90
5675;DHT22;2860;54.284;10.158;2024-02-28T00:48:54;2.90;99.90
5675;DHT22;2860;54.284;10.158;2024-02-28T00:51:19;2.90;99.90
5675;DHT22;2860;54.284;10.158;2024-02-28T00:53:45;2.80;99.90
5675;DHT22;2860;54.284;10.158;2024-02-28T00:56:10;2.80;99.90
5675;DHT22;2860;54.284;10.158;2024-02-28T00:58:36;2.80;99.90
5675;DHT22;2860;54.284;10.158;2024-02-28T01:01:02;2.80;99.90
5675;DHT22;2860;54.284;10.158;2024-02-28T01:03:28;2.80;99.90
5675;DHT22;2860;54.284;10.158;2024-02-28T01:05:53;2.80;99.90
5675;DHT22;2860;54.284;10.158;2024-02-28T01:08:19;2.70;99.90
5675;DHT22;2860;54.284;10.158;2024-02-28T01:10:45;2.70;99.90
5675;DHT22;2860;54.284;10.158;2024-02-28T01:13:10;2.70;99.90
5675;DHT22;2860;54.284;10.158;2024-02-28T01:15:36;2.70;99.90
5675;DHT22;2860;54.284;10.158;2024-02-28T01:18:02;2.70;99.90
5675;DHT22;2860;54.284;10.158;2024-02-28T01:20:27;2.70;99.90
5675;DHT22;2860;54.284;10.158;2024-02-28T01:22:53;2.70;99.90
5675;DHT22;2860;54.284;10.158;2024-02-28T01:25:18;2.70;99.90
5675;DHT22;2860;54.284;10.158;2024-02-28T01:27:44;2.70;99.90
5675;DHT22;2860;54.284;10.158;2024-02-28T01:30:10;2.70;99.90
5675;DHT22;2860;54.284;10.158;2024-02-28T01:32:35;2.60;99.90
5675;DHT22;2860;54.284;10.158;2024-02-28T01:35:02;2.60;99.90
5675;DHT22;2860;54.284;10.158;2024-02-28T01:37:28;2.60;99.90
5675;DHT22;2860;54.284;10.158;2024-02-28T01:39:53;2.60;99.90
5675;DHT22;2860;54.284;10.158;2024-02-28T01:42:19;2.60;99.90
5675;DHT22;2860;54.284;10.158;2024-02-28T01:44:48;2.60;99.90
5675;DHT22;2860;54.284;10.158;2024-02-28T01:47:17;2.60;99.90
5675;DHT22;2860;54.284;10.158;2024-02-28T01:49:44;2.60;99.90
5675;DHT22;2860;54.284;10.158;2024-02-28T01:52:11;2.60;99.90
5675;DHT22;2860;54.284;10.158;2024-02-28T01:54:38;2.60;99.90
5675;DHT22;2860;54.284;10.158;2024-02-28T01:57:05;2.60;99.90
5675;DHT22;2860;54.284;10.158;2024-02-28T01:59:31;2.60;99.90
5675;DHT22;2860;54.284;10.158;2024-02-28T02:01:57;2.60;99.90
5675;DHT22;2860;54.284;10.158;2024-02-28T02:04:23;2.60;99.90
5675;DHT22;2860;54.284;10.158;2024-02-28T02:06:50;2.60;99.90
5675;DHT22;2860;54.284;10.158;2024-02-28T02:09:19;2.50;99.90
5675;DHT22;2860;54.284;10.158;2024-02-28T02:11:44;2.50;99.90
5675;DHT22;2860;54.284;10.158;2024-02-28T02:14:10;2.50;99.90
5675;DHT22;2860;54.284;10.158;2024-02-28T02:16:35;2.50;99.90
5675;DHT22;2860;54.284;10.158;2024-02-28T02:19:01;2.50;99.90
5675;DHT22;2860;54.284;10.158;2024-02-28T02:21:30;2.50;99.90
5675;DHT22;2860;54.284;10.158;2024-02-28T02:23:57;2.50;99.90
5675;DHT22;2860;54.284;10.158;2024-02-28T02:26:22;2.50;99.90
5675;DHT22;2860;54.284;10.158;2024-02-28T02:28:48;2.50;99.90
5675;DHT22;2860;54.284;10.158;2024-02-28T02:31:13;2.50;99.90
5675;DHT22;2860;54.284;10.158;2024-02-28T02:33:39;2.50;99.90
5675;DHT22;2860;54.284;10.158;2024-02-28T02:36:05;2.50;99.90
5675;DHT22;2860;54.284;10.158;2024-02-28T02:38:30;2.50;99.90
5675;DHT22;2860;54.284;10.158;2024-02-28T02:40:56;2.50;99.90
5675;DHT22;2860;54.284;10.158;2024-02-28T02:43:22;2.50;99.90
5675;DHT22;2860;54.284;10.158;2024-02-28T02:45:47;2.50;99.90
5675;DHT22;2860;54.284;10.158;2024-02-28T02:48:13;2.40;99.90
5675;DHT22;2860;54.284;10.158;2024-02-28T02:50:39;2.40;99.90
5675;DHT22;2860;54.284;10.158;2024-02-28T02:53:04;2.40;99.90
5675;DHT22;2860;54.284;10.158;2024-02-28T02:55:30;2.40;99.90
5675;DHT22;2860;54.284;10.158;2024-02-28T02:57:56;2.40;99.90
5675;DHT22;2860;54.284;10.158;2024-02-28T03:00:21;2.40;99.90
5675;DHT22;2860;54.284;10.158;2024-02-28T03:02:47;2.40;99.90
5675;DHT22;2860;54.284;10.158;2024-02-28T03:05:13;2.40;99.90
5675;DHT22;2860;54.284;10.158;2024-02-28T03:07:38;2.40;99.90
5675;DHT22;2860;54.284;10.158;2024-02-28T03:10:05;2.40;99.90
5675;DHT22;2860;54.284;10.158;2024-02-28T03:12:30;2.40;99.90
5675;DHT22;2860;54.284;10.158;2024-02-28T03:14:56;2.40;99.90
5675;DHT22;2860;54.284;10.158;2024-02-28T03:17:22;2.40;99.90
5675;DHT22;2860;54.284;10.158;2024-02-28T03:19:48;2.40;99.90
5675;DHT22;2860;54.284;10.158;2024-02-28T03:22:14;2.40;99.90
5675;DHT22;2860;54.284;10.158;2024-02-28T03:24:39;2.50;99.90
5675;DHT22;2860;54.284;10.158;2024-02-28T03:27:05;2.50;99.90
5675;DHT22;2860;54.284;10.158;2024-02-28T03:29:30;2.50;99.90
5675;DHT22;2860;54.284;10.158;2024-02-28T03:31:56;2.50;99.90
5675;DHT22;2860;54.284;10.158;2024-02-28T03:34:22;2.50;99.90
5675;DHT22;2860;54.284;10.158;2024-02-28T03:36:47;2.50;99.90
5675;DHT22;2860;54.284;10.158;2024-02-28T03:39:13;2.50;99.90
5675;DHT22;2860;54.284;10.158;2024-02-28T03:41:38;2.50;99.90
5675;DHT22;2860;54.284;10.158;2024-02-28T03:44:04;2.50;99.90
5675;DHT22;2860;54.284;10.158;2024-02-28T03:46:30;2.50;99.90
5675;DHT22;2860;54.284;10.158;2024-02-28T03:48:56;2.50;99.90
5675;DHT22;2860;54.284;10.158;2024-02-28T03:51:21;2.50;99.90
5675;DHT22;2860;54.284;10.158;2024-02-28T03:53:47;2.50;99.90
5675;DHT22;2860;54.284;10.158;2024-02-28T03:56:12;2.50;99.90
5675;DHT22;2860;54.284;10.158;2024-02-28T03:58:40;2.50;99.90
5675;DHT22;2860;54.284;10.158;2024-02-28T04:01:06;2.50;99.90
5675;DHT22;2860;54.284;10.158;2024-02-28T04:03:31;2.50;99.90
5675;DHT22;2860;54.284;10.158;2024-02-28T04:05:57;2.50;99.90
5675;DHT22;2860;54.284;10.158;2024-02-28T04:08:23;2.50;99.90
5675;DHT22;2860;54.284;10.158;2024-02-28T04:10:49;2.40;99.90
5675;DHT22;2860;54.284;10.158;2024-02-28T04:13:16;2.40;99.90
5675;DHT22;2860;54.284;10.158;2024-02-28T04:15:42;2.40;99.90
5675;DHT22;2860;54.284;10.158;2024-02-28T04:18:07;2.40;99.90
5675;DHT22;2860;54.284;10.158;2024-02-28T04:20:33;2.50;99.90
5675;DHT22;2860;54.284;10.158;2024-02-28T04:22:58;2.50;99.90
5675;DHT22;2860;54.284;10.158;2024-02-28T04:25:24;2.40;99.90
5675;DHT22;2860;54.284;10.158;2024-02-28T04:27:49;2.50;99.90
5675;DHT22;2860;54.284;10.158;2024-02-28T04:30:15;2.40;99.90
5675;DHT22;2860;54.284;10.158;2024-02-28T04:32:41;2.50;99.90
5675;DHT22;2860;54.284;10.158;2024-02-28T04:35:07;2.50;99.90
5675;DHT22;2860;54.284;10.158;2024-02-28T04:37:33;2.50;99.90
5675;DHT22;2860;54.284;10.158;2024-02-28T04:40:00;2.50;99.90
5675;DHT22;2860;54.284;10.158;2024-02-28T04:42:25;2.50;99.90
5675;DHT22;2860;54.284;10.158;2024-02-28T04:44:51;2.50;99.90
5675;DHT22;2860;54.284;10.158;2024-02-28T04:47:16;2.50;99.90
5675;DHT22;2860;54.284;10.158;2024-02-28T04:49:42;2.40;99.90
5675;DHT22;2860;54.284;10.158;2024-02-28T04:52:07;2.40;99.90
5675;DHT22;2860;54.284;10.158;2024-02-28T04:54:33;2.40;99.90
5675;DHT22;2860;54.284;10.158;2024-02-28T04:56:59;2.40;99.90
5675;DHT22;2860;54.284;10.158;2024-02-28T04:59:24;2.40;99.90
5675;DHT22;2860;54.284;10.158;2024-02-28T05:01:51;2.40;99.90
5675;DHT22;2860;54.284;10.158;2024-02-28T05:04:17;2.40;99.90
5675;DHT22;2860;54.284;10.158;2024-02-28T05:06:43;2.40;99.90
5675;DHT22;2860;54.284;10.158;2024-02-28T05:09:08;2.40;99.90
5675;DHT22;2860;54.284;10.158;2024-02-28T05:11:34;2.40;99.90
5675;DHT22;2860;54.284;10.158;2024-02-28T05:13:59;2.40;99.90
5675;DHT22;2860;54.284;10.158;2024-02-28T05:16:25;2.40;99.90
5675;DHT22;2860;54.284;10.158;2024-02-28T05:18:51;2.30;99.90
5675;DHT22;2860;54.284;10.158;2024-02-28T05:21:16;2.30;99.90
5675;DHT22;2860;54.284;10.158;2024-02-28T05:23:42;2.20;99.90
5675;DHT22;2860;54.284;10.158;2024-02-28T05:26:07;2.20;99.90
5675;DHT22;2860;54.284;10.158;2024-02-28T05:28:33;2.10;99.90
5675;DHT22;2860;54.284;10.158;2024-02-28T05:31:03;2.10;99.90
5675;DHT22;2860;54.284;10.158;2024-02-28T05:33:44;2.00;99.90
5675;DHT22;2860;54.284;10.158;2024-02-28T05:36:09;2.00;99.90
5675;DHT22;2860;54.284;10.158;2024-02-28T05:38:35;2.00;99.90
5675;DHT22;2860;54.284;10.158;2024-02-28T05:41:00;2.00;99.90
5675;DHT22;2860;54.284;10.158;2024-02-28T05:43:26;2.00;99.90
5675;DHT22;2860;54.284;10.158;2024-02-28T05:45:52;2.00;99.90
5675;DHT22;2860;54.284;10.158;2024-02-28T05:48:18;2.00;99.90
5675;DHT22;2860;54.284;10.158;2024-02-28T05:50:44;2.00;99.90
5675;DHT22;2860;54.284;10.158;2024-02-28T05:53:09;2.00;99.90
5675;DHT22;2860;54.284;10.158;2024-02-28T05:55:35;2.00;99.90
5675;DHT22;2860;54.284;10.158;2024-02-28T05:58:00;2.00;99.90
5675;DHT22;2860;54.284;10.158;2024-02-28T06:00:27;2.00;99.90
5675;DHT22;2860;54.284;10.158;2024-02-28T06:02:53;2.00;99.90
5675;DHT22;2860;54.284;10.158;2024-02-28T06:05:19;2.00;99.90
5675;DHT22;2860;54.284;10.158;2024-02-28T06:07:44;2.10;99.90
5675;DHT22;2860;54.284;10.158;2024-02-28T06:10:10;2.10;99.90
5675;DHT22;2860;54.284;10.158;2024-02-28T06:12:36;2.10;99.90
5675;DHT22;2860;54.284;10.158;2024-02-28T06:15:01;2.10;99.90
5675;DHT22;2860;54.284;10.158;2024-02-28T06:17:27;2.20;99.90
5675;DHT22;2860;54.284;10.158;2024-02-28T06:19:52;2.20;99.90
5675;DHT22;2860;54.284;10.158;2024-02-28T06:22:18;2.20;99.90
5675;DHT22;2860;54.284;10.158;2024-02-28T06:24:45;2.20;99.90
5675;DHT22;2860;54.284;10.158;2024-02-28T06:27:11;2.20;99.90
5675;DHT22;2860;54.284;10.158;2024-02-28T06:29:39;2.20;99.90
5675;DHT22;2860;54.284;10.158;2024-02-28T06:32:04;2.30;99.90
5675;DHT22;2860;54.284;10.158;2024-02-28T06:34:30;2.30;99.90
5675;DHT22;2860;54.284;10.158;2024-02-28T06:36:56;2.30;99.90
5675;DHT22;2860;54.284;10.158;2024-02-28T06:39:22;2.30;99.90
5675;DHT22;2860;54.284;10.158;2024-02-28T06:41:47;2.30;99.90
5675;DHT22;2860;54.284;10.158;2024-02-28T06:44:14;2.30;99.90
5675;DHT22;2860;54.284;10.158;2024-02-28T06:46:40;2.30;99.90
5675;DHT22;2860;54.284;10.158;2024-02-28T06:49:05;2.40;99.90
5675;DHT22;2860;54.284;10.158;2024-02-28T06:51:31;2.40;99.90
5675;DHT22;2860;54.284;10.158;2024-02-28T06:53:56;2.40;99.90
5675;DHT22;2860;54.284;10.158;2024-02-28T06:56:22;2.40;99.90
5675;DHT22;2860;54.284;10.158;2024-02-28T06:58:47;2.40;99.90
5675;DHT22;2860;54.284;10.158;2024-02-28T07:01:13;2.50;99.90
5675;DHT22;2860;54.284;10.158;2024-02-28T07:03:38;2.50;99.90
5675;DHT22;2860;54.284;10.158;2024-02-28T07:06:04;2.60;99.90
5675;DHT22;2860;54.284;10.158;2024-02-28T07:08:32;2.60;99.90
5675;DHT22;2860;54.284;10.158;2024-02-28T07:10:57;2.70;99.90
5675;DHT22;2860;54.284;10.158;2024-02-28T07:13:23;2.70;99.90
5675;DHT22;2860;54.284;10.158;2024-02-28T07:15:49;2.80;99.90
5675;DHT22;2860;54.284;10.158;2024-02-28T07:18:14;2.80;99.90
5675;DHT22;2860;54.284;10.158;2024-02-28T07:20:40;2.90;99.90
5675;DHT22;2860;54.284;10.158;2024-02-28T07:23:06;2.90;99.90
5675;DHT22;2860;54.284;10.158;2024-02-28T07:25:31;2.90;99.90
5675;DHT22;2860;54.284;10.158;2024-02-28T07:27:58;3.00;99.90
5675;DHT22;2860;54.284;10.158;2024-02-28T07:30:28;3.10;99.90
5675;DHT22;2860;54.284;10.158;2024-02-28T07:32:53;3.20;99.90
5675;DHT22;2860;54.284;10.158;2024-02-28T07:35:19;3.20;99.90
5675;DHT22;2860;54.284;10.158;2024-02-28T07:37:46;3.30;99.90
5675;DHT22;2860;54.284;10.158;2024-02-28T07:40:12;3.30;99.90
5675;DHT22;2860;54.284;10.158;2024-02-28T07:42:38;3.40;99.90
5675;DHT22;2860;54.284;10.158;2024-02-28T07:45:03;3.40;99.90
5675;DHT22;2860;54.284;10.158;2024-02-28T07:47:29;3.40;99.90
5675;DHT22;2860;54.284;10.158;2024-02-28T07:49:55;3.30;99.90
5675;DHT22;2860;54.284;10.158;2024-02-28T07:52:20;3.40;99.90
5675;DHT22;2860;54.284;10.158;2024-02-28T07:54:46;3.40;99.90
5675;DHT22;2860;54.284;10.158;2024-02-28T07:57:12;3.50;99.90
5675;DHT22;2860;54.284;10.158;2024-02-28T07:59:41;3.70;99.90
5675;DHT22;2860;54.284;10.158;2024-02-28T08:02:07;3.80;99.90
5675;DHT22;2860;54.284;10.158;2024-02-28T08:04:33;3.90;99.90
5675;DHT22;2860;54.284;10.158;2024-02-28T08:06:59;4.00;99.90
5675;DHT22;2860;54.284;10.158;2024-02-28T08:09:25;4.00;99.90
5675;DHT22;2860;54.284;10.158;2024-02-28T08:11:50;4.00;99.90
5675;DHT22;2860;54.284;10.158;2024-02-28T08:14:16;4.00;99.90
5675;DHT22;2860;54.284;10.158;2024-02-28T08:16:42;4.10;99.90
5675;DHT22;2860;54.284;10.158;2024-02-28T08:19:08;4.10;99.90
5675;DHT22;2860;54.284;10.158;2024-02-28T08:21:33;4.20;99.90
5675;DHT22;2860;54.284;10.158;2024-02-28T08:23:59;4.30;99.90
5675;DHT22;2860;54.284;10.158;2024-02-28T08:26:25;4.30;99.90
5675;DHT22;2860;54.284;10.158;2024-02-28T08:28:50;4.40;99.90
5675;DHT22;2860;54.284;10.158;2024-02-28T08:31:16;4.40;99.90
5675;DHT22;2860;54.284;10.158;2024-02-28T08:33:41;4.40;99.90
5675;DHT22;2860;54.284;10.158;2024-02-28T08:36:07;4.50;99.90
5675;DHT22;2860;54.284;10.158;2024-02-28T08:38:33;4.60;99.90
5675;DHT22;2860;54.284;10.158;2024-02-28T08:41:00;4.70;99.90
5675;DHT22;2860;54.284;10.158;2024-02-28T08:43:25;4.80;99.90
5675;DHT22;2860;54.284;10.158;2024-02-28T08:45:51;4.90;99.90
5675;DHT22;2860;54.284;10.158;2024-02-28T08:48:17;5.10;99.90
5675;DHT22;2860;54.284;10.158;2024-02-28T08:50:42;5.20;99.90
5675;DHT22;2860;54.284;10.158;2024-02-28T08:53:09;5.50;99.90
5675;DHT22;2860;54.284;10.158;2024-02-28T08:55:34;5.60;99.90
5675;DHT22;2860;54.284;10.158;2024-02-28T08:58:00;5.70;99.90
5675;DHT22;2860;54.284;10.158;2024-02-28T09:00:25;5.60;99.90
5675;DHT22;2860;54.284;10.158;2024-02-28T09:02:51;5.60;99.90
5675;DHT22;2860;54.284;10.158;2024-02-28T09:05:16;5.50;99.90
5675;DHT22;2860;54.284;10.158;2024-02-28T09:07:42;5.50;99.90
5675;DHT22;2860;54.284;10.158;2024-02-28T09:10:08;5.50;99.90
5675;DHT22;2860;54.284;10.158;2024-02-28T09:12:33;5.50;99.90
5675;DHT22;2860;54.284;10.158;2024-02-28T09:14:59;5.50;99.90
5675;DHT22;2860;54.284;10.158;2024-02-28T09:17:25;5.50;99.90
5675;DHT22;2860;54.284;10.158;2024-02-28T09:19:52;5.60;99.90
5675;DHT22;2860;54.284;10.158;2024-02-28T09:22:17;5.60;99.90
5675;DHT22;2860;54.284;10.158;2024-02-28T09:24:43;5.50;99.90
5675;DHT22;2860;54.284;10.158;2024-02-28T09:27:09;5.50;99.90
5675;DHT22;2860;54.284;10.158;2024-02-28T09:29:34;5.60;99.90
5675;DHT22;2860;54.284;10.158;2024-02-28T09:32:00;5.60;99.90
5675;DHT22;2860;54.284;10.158;2024-02-28T09:34:25;5.70;99.90
5675;DHT22;2860;54.284;10.158;2024-02-28T09:36:51;5.70;99.90
5675;DHT22;2860;54.284;10.158;2024-02-28T09:39:16;5.70;99.90
5675;DHT22;2860;54.284;10.158;2024-02-28T09:41:42;5.70;99.90
5675;DHT22;2860;54.284;10.158;2024-02-28T09:44:08;5.70;99.90
5675;DHT22;2860;54.284;10.158;2024-02-28T09:46:34;5.70;99.90
5675;DHT22;2860;54.284;10.158;2024-02-28T09:49:07;5.70;99.90
5675;DHT22;2860;54.284;10.158;2024-02-28T09:51:34;5.70;99.90
5675;DHT22;2860;54.284;10.158;2024-02-28T09:54:03;5.80;99.90
5675;DHT22;2860;54.284;10.158;2024-02-28T09:56:33;5.80;99.90
5675;DHT22;2860;54.284;10.158;2024-02-28T09:58:59;5.80;99.90
5675;DHT22;2860;54.284;10.158;2024-02-28T10:01:26;5.90;99.90
5675;DHT22;2860;54.284;10.158;2024-02-28T10:03:52;5.90;99.90
5675;DHT22;2860;54.284;10.158;2024-02-28T10:06:19;5.80;99.90
5675;DHT22;2860;54.284;10.158;2024-02-28T10:08:45;5.80;99.90
5675;DHT22;2860;54.284;10.158;2024-02-28T10:11:21;5.80;99.90
5675;DHT22;2860;54.284;10.158;2024-02-28T10:13:47;5.80;99.90
5675;DHT22;2860;54.284;10.158;2024-02-28T10:16:13;5.80;99.90
5675;DHT22;2860;54.284;10.158;2024-02-28T10:18:43;5.80;99.90
5675;DHT22;2860;54.284;10.158;2024-02-28T10:21:09;5.90;99.90
5675;DHT22;2860;54.284;10.158;2024-02-28T10:23:36;5.90;99.90
5675;DHT22;2860;54.284;10.158;2024-02-28T10:26:02;5.80;99.90
5675;DHT22;2860;54.284;10.158;2024-02-28T10:28:29;5.80;99.90
5675;DHT22;2860;54.284;10.158;2024-02-28T10:30:54;5.90;99.90
5675;DHT22;2860;54.284;10.158;2024-02-28T10:33:20;5.80;99.90
5675;DHT22;2860;54.284;10.158;2024-02-28T10:35:46;5.80;99.90
5675;DHT22;2860;54.284;10.158;2024-02-28T10:38:15;5.80;99.90
5675;DHT22;2860;54.284;10.158;2024-02-28T10:40:41;5.80;99.90
5675;DHT22;2860;54.284;10.158;2024-02-28T10:43:08;5.90;99.90
5675;DHT22;2860;54.284;10.158;2024-02-28T10:45:36;5.90;99.90
5675;DHT22;2860;54.284;10.158;2024-02-28T10:48:04;6.00;99.90
5675;DHT22;2860;54.284;10.158;2024-02-28T10:50:30;6.00;99.90
5675;DHT22;2860;54.284;10.158;2024-02-28T10:53:01;6.10;99.90
5675;DHT22;2860;54.284;10.158;2024-02-28T10:55:34;6.10;99.90
5675;DHT22;2860;54.284;10.158;2024-02-28T10:58:07;6.20;99.90
5675;DHT22;2860;54.284;10.158;2024-02-28T11:00:34;6.20;99.90
5675;DHT22;2860;54.284;10.158;2024-02-28T11:03:01;6.20;99.90
5675;DHT22;2860;54.284;10.158;2024-02-28T11:05:42;6.10;99.90
5675;DHT22;2860;54.284;10.158;2024-02-28T11:08:11;6.20;99.90
5675;DHT22;2860;54.284;10.158;2024-02-28T11:10:42;6.20;99.90
5675;DHT22;2860;54.284;10.158;2024-02-28T11:13:10;6.40;99.90
5675;DHT22;2860;54.284;10.158;2024-02-28T11:15:36;6.50;99.90
5675;DHT22;2860;54.284;10.158;2024-02-28T11:18:08;6.70;99.90
5675;DHT22;2860;54.284;10.158;2024-02-28T11:20:38;6.70;99.90
5675;DHT22;2860;54.284;10.158;2024-02-28T11:23:06;6.70;99.90
5675;DHT22;2860;54.284;10.158;2024-02-28T11:25:31;6.80;99.90
5675;DHT22;2860;54.284;10.158;2024-02-28T11:27:57;6.90;99.90
5675;DHT22;2860;54.284;10.158;2024-02-28T11:30:24;7.20;99.90
5675;DHT22;2860;54.284;10.158;2024-02-28T11:32:52;7.50;99.90
5675;DHT22;2860;54.284;10.158;2024-02-28T11:35:18;7.60;99.90
5675;DHT22;2860;54.284;10.158;2024-02-28T11:37:45;7.60;99.90
5675;DHT22;2860;54.284;10.158;2024-02-28T11:40:12;7.60;99.90
5675;DHT22;2860;54.284;10.158;2024-02-28T11:42:38;7.60;99.90
5675;DHT22;2860;54.284;10.158;2024-02-28T11:45:10;7.60;99.90
5675;DHT22;2860;54.284;10.158;2024-02-28T11:47:36;7.70;99.90
5675;DHT22;2860;54.284;10.158;2024-02-28T11:50:02;7.80;99.90
5675;DHT22;2860;54.284;10.158;2024-02-28T11:52:31;7.90;99.90
5675;DHT22;2860;54.284;10.158;2024-02-28T11:54:57;8.00;99.90
5675;DHT22;2860;54.284;10.158;2024-02-28T11:57:22;8.10;99.90
5675;DHT22;2860;54.284;10.158;2024-02-28T11:59:48;8.10;99.90
5675;DHT22;2860;54.284;10.158;2024-02-28T12:02:15;8.00;99.90
5675;DHT22;2860;54.284;10.158;2024-02-28T12:04:41;7.90;99.90
5675;DHT22;2860;54.284;10.158;2024-02-28T12:07:08;7.70;99.90
5675;DHT22;2860;54.284;10.158;2024-02-28T12:09:34;7.70;99.90
5675;DHT22;2860;54.284;10.158;2024-02-28T12:12:03;7.60;99.90
5675;DHT22;2860;54.284;10.158;2024-02-28T12:14:31;7.50;99.90
5675;DHT22;2860;54.284;10.158;2024-02-28T12:16:58;7.40;99.90
5675;DHT22;2860;54.284;10.158;2024-02-28T12:19:24;7.20;99.90
5675;DHT22;2860;54.284;10.158;2024-02-28T12:21:49;7.00;99.90
5675;DHT22;2860;54.284;10.158;2024-02-28T12:24:15;7.00;99.90
5675;DHT22;2860;54.284;10.158;2024-02-28T12:26:41;7.10;99.90
5675;DHT22;2860;54.284;10.158;2024-02-28T12:29:07;7.30;99.90
5675;DHT22;2860;54.284;10.158;2024-02-28T12:31:32;7.40;99.90
5675;DHT22;2860;54.284;10.158;2024-02-28T12:33:58;7.40;99.90
5675;DHT22;2860;54.284;10.158;2024-02-28T12:36:24;7.30;99.90
5675;DHT22;2860;54.284;10.158;2024-02-28T12:38:50;7.30;99.90
5675;DHT22;2860;54.284;10.158;2024-02-28T12:41:15;7.40;99.90
5675;DHT22;2860;54.284;10.158;2024-02-28T12:43:41;7.50;99.90
5675;DHT22;2860;54.284;10.158;2024-02-28T12:46:06;7.50;99.90
5675;DHT22;2860;54.284;10.158;2024-02-28T12:48:41;7.50;99.90
5675;DHT22;2860;54.284;10.158;2024-02-28T12:51:08;7.60;99.90
5675;DHT22;2860;54.284;10.158;2024-02-28T12:53:36;7.70;99.90
5675;DHT22;2860;54.284;10.158;2024-02-28T12:56:01;7.80;99.90
5675;DHT22;2860;54.284;10.158;2024-02-28T12:58:27;7.80;99.90
5675;DHT22;2860;54.284;10.158;2024-02-28T13:00:53;7.80;99.90
5675;DHT22;2860;54.284;10.158;2024-02-28T13:03:19;7.80;99.90
5675;DHT22;2860;54.284;10.158;2024-02-28T13:05:45;7.90;99.90
5675;DHT22;2860;54.284;10.158;2024-02-28T13:08:10;7.90;99.90
5675;DHT22;2860;54.284;10.158;2024-02-28T13:10:36;8.00;99.90
5675;DHT22;2860;54.284;10.158;2024-02-28T13:13:07;8.00;99.90
5675;DHT22;2860;54.284;10.158;2024-02-28T13:15:33;7.90;99.90
5675;DHT22;2860;54.284;10.158;2024-02-28T13:17:59;7.90;99.90
5675;DHT22;2860;54.284;10.158;2024-02-28T13:20:26;7.90;99.90
5675;DHT22;2860;54.284;10.158;2024-02-28T13:22:52;7.90;99.90
5675;DHT22;2860;54.284;10.158;2024-02-28T13:25:17;7.70;99.90
5675;DHT22;2860;54.284;10.158;2024-02-28T13:27:45;7.60;99.90
5675;DHT22;2860;54.284;10.158;2024-02-28T13:30:11;7.50;99.90
5675;DHT22;2860;54.284;10.158;2024-02-28T13:32:37;7.40;99.90
5675;DHT22;2860;54.284;10.158;2024-02-28T13:35:02;7.30;99.90
5675;DHT22;2860;54.284;10.158;2024-02-28T13:37:28;7.30;99.90
5675;DHT22;2860;54.284;10.158;2024-02-28T13:39:54;7.30;99.90
5675;DHT22;2860;54.284;10.158;2024-02-28T13:42:19;7.30;99.90
5675;DHT22;2860;54.284;10.158;2024-02-28T13:44:49;7.20;99.90
5675;DHT22;2860;54.284;10.158;2024-02-28T13:47:15;7.20;99.90
5675;DHT22;2860;54.284;10.158;2024-02-28T13:49:41;7.20;99.90
5675;DHT22;2860;54.284;10.158;2024-02-28T13:52:06;7.20;99.90
5675;DHT22;2860;54.284;10.158;2024-02-28T13:54:32;7.30;99.90
5675;DHT22;2860;54.284;10.158;2024-02-28T13:56:57;7.40;99.90
5675;DHT22;2860;54.284;10.158;2024-02-28T13:59:23;7.50;99.90
5675;DHT22;2860;54.284;10.158;2024-02-28T14:01:49;7.50;99.90
5675;DHT22;2860;54.284;10.158;2024-02-28T14:04:15;7.50;99.90
5675;DHT22;2860;54.284;10.158;2024-02-28T14:06:40;7.50;99.90
5675;DHT22;2860;54.284;10.158;2024-02-28T14:09:06;7.40;99.90
5675;DHT22;2860;54.284;10.158;2024-02-28T14:11:32;7.40;99.90
5675;DHT22;2860;54.284;10.158;2024-02-28T14:13:57;7.40;99.90
5675;DHT22;2860;54.284;10.158;2024-02-28T14:16:24;7.40;99.90
5675;DHT22;2860;54.284;10.158;2024-02-28T14:18:49;7.40;99.90
5675;DHT22;2860;54.284;10.158;2024-02-28T14:21:15;7.50;99.90
5675;DHT22;2860;54.284;10.158;2024-02-28T14:23:40;7.60;99.90
5675;DHT22;2860;54.284;10.158;2024-02-28T14:26:06;7.60;99.90
5675;DHT22;2860;54.284;10.158;2024-02-28T14:28:32;7.60;99.90
5675;DHT22;2860;54.284;10.158;2024-02-28T14:30:57;7.70;99.90
5675;DHT22;2860;54.284;10.158;2024-02-28T14:33:23;7.60;99.90
5675;DHT22;2860;54.284;10.158;2024-02-28T14:35:49;7.50;99.90
5675;DHT22;2860;54.284;10.158;2024-02-28T14:38:14;7.50;99.90
5675;DHT22;2860;54.284;10.158;2024-02-28T14:40:40;7.50;99.90
5675;DHT22;2860;54.284;10.158;2024-02-28T14:43:07;7.50;99.90
5675;DHT22;2860;54.284;10.158;2024-02-28T14:45:32;7.50;99.90
5675;DHT22;2860;54.284;10.158;2024-02-28T14:47:58;7.50;99.90
5675;DHT22;2860;54.284;10.158;2024-02-28T14:50:24;7.40;99.90
5675;DHT22;2860;54.284;10.158;2024-02-28T14:52:49;7.40;99.90
5675;DHT22;2860;54.284;10.158;2024-02-28T14:55:15;7.30;99.90
5675;DHT22;2860;54.284;10.158;2024-02-28T14:57:40;7.30;99.90
5675;DHT22;2860;54.284;10.158;2024-02-28T15:00:07;7.30;99.90
5675;DHT22;2860;54.284;10.158;2024-02-28T15:02:35;7.30;99.90
5675;DHT22;2860;54.284;10.158;2024-02-28T15:05:01;7.30;99.90
5675;DHT22;2860;54.284;10.158;2024-02-28T15:07:30;7.30;99.90
5675;DHT22;2860;54.284;10.158;2024-02-28T15:09:56;7.30;99.90
5675;DHT22;2860;54.284;10.158;2024-02-28T15:12:26;7.20;99.90
5675;DHT22;2860;54.284;10.158;2024-02-28T15:14:51;7.20;99.90
5675;DHT22;2860;54.284;10.158;2024-02-28T15:17:17;7.20;99.90
5675;DHT22;2860;54.284;10.158;2024-02-28T15:19:42;7.10;99.90
5675;DHT22;2860;54.284;10.158;2024-02-28T15:22:09;7.10;99.90
5675;DHT22;2860;54.284;10.158;2024-02-28T15:24:34;7.20;99.90
5675;DHT22;2860;54.284;10.158;2024-02-28T15:27:00;7.20;99.90
5675;DHT22;2860;54.284;10.158;2024-02-28T15:29:25;7.20;99.90
5675;DHT22;2860;54.284;10.158;2024-02-28T15:31:52;7.10;99.90
5675;DHT22;2860;54.284;10.158;2024-02-28T15:34:18;7.10;99.90
5675;DHT22;2860;54.284;10.158;2024-02-28T15:36:43;7.10;99.90
5675;DHT22;2860;54.284;10.158;2024-02-28T15:39:09;7.00;99.90
5675;DHT22;2860;54.284;10.158;2024-02-28T15:41:35;7.00;99.90
5675;DHT22;2860;54.284;10.158;2024-02-28T15:44:00;7.00;99.90
5675;DHT22;2860;54.284;10.158;2024-02-28T15:46:26;6.90;99.90
5675;DHT22;2860;54.284;10.158;2024-02-28T15:48:51;6.90;99.90
5675;DHT22;2860;54.284;10.158;2024-02-28T15:51:17;6.90;99.90
5675;DHT22;2860;54.284;10.158;2024-02-28T15:53:43;6.90;99.90